Latest Weather Observations for Gladstone

IDQ60801

Issued at 4:32 pm EST Monday 31 August 2015 (issued every 30 minutes, with the page automatically refreshed every 10 minutes)

About weather observations | Map of weather stations | Latest weather observations for QLD | Other Formats
Station Details ID: 039123 Name: GLADSTONE RADAR Lat: -23.86 Lon: 151.26 Height: 74.5 m
Data from the previous 72 hours. | See also: Recent months at Gladstone
Date/Time
EST
Temp
°C
App
Temp
°C
Dew
Point
Rel
Hum
%
Delta-T
°C
Wind Press
QNH
hPa
Press
MSL
hPa
Rain
since 9 am
mm
Dir
 
Spd
km/h
Gust
km/h
Spd
kts
Gust
kts
31/04:30pm 23.0 19.2 1.9 25 9.9 WSW 11 22 6 12 1013.9 1013.7 0.0
31/04:00pm 23.8 19.6 1.4 23 10.5 WSW 13 24 7 13 1013.5 1013.3 0.0
31/03:30pm 23.9 19.0 2.1 24 10.4 WSW 17 32 9 17 1013.6 1013.4 0.0
31/03:00pm 24.3 20.3 3.0 25 10.3 WSW 13 24 7 13 1014.0 1013.8 0.0
31/02:30pm 24.1 19.4 3.4 26 10.1 WSW 17 37 9 20 1014.4 1014.2 0.0
31/02:00pm 24.3 19.7 3.6 26 10.2 WSW 17 39 9 21 1014.8 1014.6 0.0
31/01:30pm 24.8 21.1 4.5 27 10.2 WSW 13 28 7 15 1015.1 1014.9 0.0
31/01:00pm 24.7 20.9 3.9 26 10.3 W 13 24 7 13 1015.6 1015.4 0.0
31/12:30pm 23.7 19.1 3.6 27 9.8 WSW 17 24 9 13 1016.0 1015.8 0.0
31/12:00pm 24.2 21.1 5.5 30 9.5 WSW 11 26 6 14 1016.2 1016.0 0.0
31/11:30am 23.0 20.5 5.0 31 9.0 W 7 19 4 10 1017.0 1016.8 0.0
31/11:00am 21.9 19.0 4.5 32 8.5 W 9 20 5 11 1017.5 1017.3 0.0
31/10:30am 21.0 18.3 5.4 36 7.7 WSW 9 19 5 10 1018.2 1018.0 0.0
31/10:00am 20.1 17.4 5.7 39 7.1 WSW 9 15 5 8 1018.6 1018.5 0.0
31/09:30am 18.3 14.9 3.8 38 6.8 SW 11 24 6 13 1018.7 1018.6 0.0
31/09:00am 17.8 15.1 5.4 44 6.0 SW 9 15 5 8 1018.6 1018.5 0.0
31/08:30am 16.7 12.9 3.7 42 6.0 SSW 13 19 7 10 1018.5 1018.4 0.0
31/08:00am 15.8 12.5 4.8 48 5.2 SSW 11 19 6 10 1018.1 1017.9 0.0
31/07:30am 14.6 11.7 4.9 52 4.6 SSW 9 17 5 9 1017.9 1017.7 0.0
31/07:00am 14.0 10.4 4.9 54 4.2 SSW 13 17 7 9 1017.6 1017.4 0.0
31/06:30am 13.0 10.5 4.7 57 3.8 SW 7 11 4 6 1017.5 1017.3 0.0
31/06:00am 13.3 10.0 4.5 55 4.0 SW 11 15 6 8 1017.0 1016.8 0.0
31/05:30am 13.5 10.6 4.4 54 4.2 SW 9 15 5 8 1016.7 1016.5 0.0
31/05:00am 14.3 10.6 4.6 52 4.5 SSW 13 20 7 11 1016.4 1016.2 0.0
31/04:30am 14.3 11.0 4.6 52 4.5 SSW 11 17 6 9 1016.3 1016.1 0.0
31/04:00am 14.6 11.4 4.9 52 4.5 SSW 11 15 6 8 1016.4 1016.2 0.0
31/03:30am 14.8 11.9 4.8 51 4.7 SW 9 15 5 8 1016.4 1016.2 0.0
31/03:00am 15.3 11.7 4.9 50 4.9 SSW 13 19 7 10 1016.4 1016.2 0.0
31/02:30am 15.6 11.7 5.2 50 4.9 SSW 15 24 8 13 1016.5 1016.3 0.0
31/02:00am 15.6 12.0 5.2 50 4.9 S 13 20 7 11 1016.8 1016.6 0.0
31/01:30am 16.1 14.4 5.7 50 5.0 WSW 4 7 2 4 1017.2 1017.0 0.0
31/01:00am 16.4 13.3 5.7 49 5.2 SSW 11 17 6 9 1017.2 1017.0 0.0
31/12:30am 16.9 13.0 5.5 47 5.5 S 15 19 8 10 1017.2 1017.0 0.0
31/12:00am 17.5 13.2 5.4 45 5.9 S 17 24 9 13 1017.3 1017.1 0.0
 
Date/Time
EST
Temp
°C
App
Temp
°C
Dew
Point
Rel
Hum
%
Delta-T
°C
Wind Press
QNH
hPa
Press
MSL
hPa
Rain
since 9 am
mm
Dir
 
Spd
km/h
Gust
km/h
Spd
kts
Gust
kts
30/11:30pm 17.8 13.9 5.4 44 6.0 S 15 24 8 13 1017.3 1017.1 0.0
30/11:00pm 18.3 14.4 5.2 42 6.3 SSW 15 24 8 13 1017.5 1017.3 0.0
30/10:30pm 18.8 14.4 4.9 40 6.7 SW 17 32 9 17 1017.6 1017.4 0.0
30/10:00pm 18.6 14.4 7.4 48 5.7 SW 19 30 10 16 1017.5 1017.3 0.0
30/09:30pm 18.7 15.1 8.4 51 5.3 SW 17 26 9 14 1017.3 1017.1 0.0
30/09:00pm 18.8 15.1 9.3 54 5.0 SW 19 28 10 15 1017.0 1016.8 0.0
30/08:30pm 19.0 15.7 9.5 54 5.0 SW 17 26 9 14 1016.7 1016.5 0.0
30/08:00pm 19.4 17.0 10.1 55 5.0 WSW 13 26 7 14 1016.4 1016.2 0.0
30/07:30pm 19.9 18.2 11.1 57 4.8 WSW 11 19 6 10 1016.0 1015.8 0.0
30/07:00pm 19.9 18.7 12.7 63 4.1 SW 11 15 6 8 1015.5 1015.3 0.0
30/06:30pm 20.2 19.4 11.7 58 4.7 WSW 7 13 4 7 1015.1 1014.9 0.0
30/06:00pm 20.6 22.1 15.8 74 2.9 ESE 2 6 1 3 1014.8 1014.6 0.0
30/05:30pm 20.9 22.9 15.9 73 3.0 CALM 0 6 0 3 1014.4 1014.2 0.0
30/05:00pm 21.2 22.5 17.2 78 2.5 N 6 9 3 5 1014.2 1014.0 0.0
30/04:30pm 21.0 22.1 18.0 83 1.9 NNE 9 17 5 9 1014.1 1013.9 0.0
30/04:00pm 20.6 21.5 17.6 83 1.8 NNE 9 19 5 10 1014.3 1014.1 0.0
30/03:30pm 21.8 22.5 17.0 74 2.9 NNE 9 17 5 9 1014.4 1014.2 0.0
30/03:00pm 24.3 24.9 16.8 63 4.6 NNE 9 17 5 9 1014.5 1014.3 0.0
30/02:30pm 23.7 24.5 17.2 67 4.0 NNW 9 15 5 8 1014.9 1014.7 0.0
30/02:00pm 24.2 25.0 17.2 65 4.3 NW 9 19 5 10 1015.3 1015.1 0.0
30/01:30pm 24.0 25.1 17.0 65 4.3 N 7 13 4 7 1015.7 1015.5 0.0
30/01:00pm 22.6 23.1 16.6 69 3.7 NW 9 17 5 9 1016.1 1015.9 0.0
30/12:30pm 20.8 21.8 16.4 76 2.7 NNW 6 11 3 6 1016.7 1016.5 0.0
30/12:00pm 20.9 21.7 15.9 73 3.0 W 6 7 3 4 1017.0 1016.8 0.0
30/11:30am 21.2 22.5 17.0 77 2.6 SW 6 9 3 5 1017.4 1017.2 0.0
30/11:00am 20.9 22.4 18.1 84 1.7 WSW 7 13 4 7 1017.8 1017.6 0.0
30/10:30am 19.0 20.2 17.3 90 1.0 WSW 7 11 4 6 1018.5 1018.4 0.0
30/10:00am 18.3 19.4 17.1 93 0.7 WSW 7 13 4 7 1018.8 1018.7 0.0
30/09:30am 17.9 18.1 16.8 93 0.7 WSW 11 17 6 9 1018.8 1018.7 0.0
30/09:00am 17.5 18.3 17.2 98 0.2 SW 9 15 5 8 1018.4 1018.3 13.8
30/08:30am 17.0 17.6 16.8 99 0.1 SE 9 13 5 7 1017.7 1017.5 13.8
30/08:00am 16.5 17.3 16.3 99 0.1 WSW 7 13 4 7 1018.2 1018.0 13.8
30/07:30am 16.3 16.6 16.1 99 0.1 WSW 9 15 5 8 1018.4 1018.3 13.6
30/07:00am 16.0 16.2 15.8 99 0.1 WSW 9 11 5 6 1018.0 1017.8 13.6
30/06:30am 15.9 16.1 15.7 99 0.1 WSW 9 15 5 8 1017.6 1017.4 13.6
30/06:00am 15.9 15.7 15.7 99 0.1 SW 11 20 6 11 1017.4 1017.2 13.6
30/05:30am 16.1 16.7 15.9 99 0.1 WSW 7 11 4 6 1017.1 1016.9 13.6
30/05:00am 16.1 16.4 15.9 99 0.1 WSW 9 13 5 7 1017.0 1016.8 13.4
30/04:30am 16.2 16.9 16.0 99 0.1 WSW 7 11 4 6 1017.0 1016.8 13.4
30/04:00am 16.2 16.9 16.0 99 0.1 SW 7 9 4 5 1017.0 1016.8 13.4
30/03:30am 16.2 17.8 16.0 99 0.1 W 2 7 1 4 1017.1 1016.9 13.4
30/03:00am 16.2 15.4 16.0 99 0.1 SE 15 20 8 11 1016.9 1016.7 13.4
30/02:30am 16.3 17.0 16.1 99 0.1 SW 7 11 4 6 1017.7 1017.5 12.6
30/02:00am 16.5 17.5 16.3 99 0.1 WSW 6 9 3 5 1018.1 1017.9 12.2
30/01:30am 16.4 16.4 16.2 99 0.1 S 11 15 6 8 1018.3 1018.1 12.2
30/01:00am 16.3 15.9 16.1 99 0.1 SE 13 19 7 10 1018.5 1018.4 12.2
30/12:30am 16.5 16.1 16.2 98 0.2 SSE 13 22 7 12 1018.9 1018.8 12.2
30/12:00am 16.3 14.1 16.0 98 0.2 SSW 22 32 12 17 1019.1 1019.0 12.0
 
Date/Time
EST
Temp
°C
App
Temp
°C
Dew
Point
Rel
Hum
%
Delta-T
°C
Wind Press
QNH
hPa
Press
MSL
hPa
Rain
since 9 am
mm
Dir
 
Spd
km/h
Gust
km/h
Spd
kts
Gust
kts
29/11:30pm 16.8 15.1 15.7 93 0.6 WSW 19 30 10 16 1019.5 1019.3 6.2
29/11:00pm 19.7 21.4 18.4 92 0.8 S 7 11 4 6 1019.0 1018.9 0.2
29/10:30pm 20.2 22.9 18.7 91 0.9 SE 2 9 1 5 1018.9 1018.8 0.0
29/10:00pm 20.4 22.4 19.1 92 0.8 ESE 7 13 4 7 1019.0 1018.9 0.0
29/09:30pm 20.2 21.4 19.0 93 0.8 E 11 17 6 9 1019.2 1019.1 0.0
29/09:00pm 20.2 21.0 19.0 93 0.8 E 13 17 7 9 1019.0 1018.9 0.0
29/08:30pm 20.2 20.6 19.0 93 0.8 E 15 20 8 11 1018.7 1018.6 0.0
29/08:00pm 20.1 20.8 18.9 93 0.8 ENE 13 17 7 9 1018.6 1018.5 0.0
29/07:30pm 20.1 21.2 18.8 92 0.8 ENE 11 15 6 8 1018.5 1018.4 0.0
29/07:00pm 20.0 20.6 18.5 91 0.9 ENE 13 19 7 10 1018.4 1018.3 0.0
29/06:30pm 20.0 20.8 18.1 89 1.2 NE 11 17 6 9 1018.0 1017.8 0.0
29/06:00pm 20.2 20.9 18.0 87 1.4 NE 11 19 6 10 1017.7 1017.5 0.0
29/05:30pm 20.7 20.9 17.7 83 1.9 NE 13 20 7 11 1017.3 1017.1 0.0
29/05:00pm 21.2 20.7 17.8 81 2.1 NE 17 24 9 13 1017.2 1017.0 0.0
29/04:30pm 22.1 22.2 17.5 75 2.8 NE 13 19 7 10 1017.1 1016.9 0.0
29/04:00pm 23.1 22.4 17.3 70 3.6 ENE 17 24 9 13 1017.1 1016.9 0.0
29/03:30pm 24.0 23.3 17.3 66 4.2 ENE 17 28 9 15 1017.4 1017.2 0.0
29/03:00pm 24.3 23.7 17.5 66 4.2 NE 17 26 9 14 1017.7 1017.5 0.0
29/02:30pm 25.5 25.3 17.7 62 4.9 NE 15 24 8 13 1018.1 1017.9 0.0
29/02:00pm 24.7 24.0 17.4 64 4.5 NE 17 22 9 12 1018.6 1018.5 0.0
29/01:30pm 25.9 24.9 17.5 59 5.3 ENE 19 24 10 13 1018.9 1018.8 0.0
29/01:00pm 25.9 25.3 17.5 59 5.3 ENE 17 24 9 13 1019.4 1019.2 0.0
29/12:30pm 26.6 26.1 17.9 59 5.5 ENE 17 22 9 12 1019.9 1019.7 0.0
29/12:00pm 27.0 27.2 18.6 60 5.4 ENE 15 22 8 12 1020.6 1020.4 0.0
29/11:30am 25.5 24.7 17.9 63 4.8 E 19 24 10 13 1020.9 1020.7 0.0
29/11:00am 26.2 26.3 19.1 65 4.6 E 17 24 9 13 1021.4 1021.2 0.0
29/10:30am 25.6 25.5 18.8 66 4.3 ENE 17 20 9 11 1021.8 1021.6 0.0
29/10:00am 24.6 25.5 18.3 68 4.0 E 11 17 6 9 1022.0 1021.8 0.0
29/09:30am 23.1 24.1 18.6 76 2.8 SE 11 19 6 10 1022.1 1021.9 0.0
29/09:00am 22.0 23.4 18.6 81 2.1 ESE 9 15 5 8 1021.8 1021.6 0.0
29/08:30am 21.4 22.8 18.6 84 1.8 SE 9 13 5 7 1021.7 1021.5 0.0
29/08:00am 20.6 22.4 18.7 89 1.2 SE 7 13 4 7 1021.4 1021.2 0.0
29/07:30am 19.7 20.6 18.5 93 0.7 SE 11 15 6 8 1021.1 1020.9 0.0
29/07:00am 19.1 20.4 18.4 96 0.4 S 9 13 5 7 1021.0 1020.8 0.0
29/06:30am 18.9 19.8 18.4 97 0.3 SSE 11 15 6 8 1020.5 1020.3 0.0
29/06:00am 18.8 20.0 18.3 97 0.3 SSE 9 11 5 6 1020.5 1020.3 0.0
29/05:30am 18.7 19.9 18.2 97 0.3 SSW 9 11 5 6 1020.5 1020.3 0.0
29/05:00am 18.7 19.8 18.0 96 0.4 SE 9 13 5 7 1019.8 1019.6 0.0
29/04:30am 18.9 20.1 18.2 96 0.4 S 9 13 5 7 1019.7 1019.5 0.0
29/04:00am 19.2 20.6 18.7 97 0.3 SSE 9 9 5 5 1019.6 1019.4 0.0
29/03:30am 19.1 20.8 18.4 96 0.4 SSE 7 9 4 5 1019.7 1019.5 0.0
29/03:00am 19.1 20.9 18.3 95 0.5 SSE 6 9 3 5 1020.0 1019.8 0.0
29/02:30am 19.1 20.3 18.3 95 0.5 SSE 9 11 5 6 1020.0 1019.8 0.0
29/02:00am 19.3 20.2 18.3 94 0.6 SE 11 13 6 7 1020.3 1020.1 0.0
29/01:30am 19.5 20.8 18.5 94 0.6 S 9 11 5 6 1020.7 1020.5 0.0
29/01:00am 19.7 22.7 18.5 93 0.7 CALM 0 0 0 0 1020.7 1020.5 0.0
29/12:30am 19.7 22.7 18.5 93 0.7 CALM 0 0 0 0 1020.9 1020.7 0.0
29/12:00am 19.8 22.4 18.5 92 0.8 WSW 2 7 1 4 1021.1 1020.9 0.0
 
Date/Time
EST
Temp
°C
App
Temp
°C
Dew
Point
Rel
Hum
%
Delta-T
°C
Wind Press
QNH
hPa
Press
MSL
hPa
Rain
since 9 am
mm
Dir
 
Spd
km/h
Gust
km/h
Spd
kts
Gust
kts
28/11:30pm 20.3 23.6 19.0 92 0.8 CALM 0 0 0 0 1021.2 1021.0 0.0
28/11:00pm 20.0 23.1 18.7 92 0.8 CALM 0 0 0 0 1021.1 1020.9 0.0
28/10:30pm 20.0 22.9 18.3 90 1.1 CALM 0 0 0 0 1021.0 1020.8 0.0
28/10:00pm 20.3 23.4 18.6 90 1.1 CALM 0 0 0 0 1021.0 1020.8 0.0
28/09:30pm 20.3 22.6 18.6 90 1.1 NNE 4 7 2 4 1021.1 1020.9 0.0
28/09:00pm 20.2 21.9 18.5 90 1.1 ENE 7 9 4 5 1020.8 1020.6 0.0
28/08:30pm 20.4 22.5 18.9 91 0.9 NE 6 7 3 4 1020.9 1020.7 0.0
28/08:00pm 20.0 21.2 18.3 90 1.1 ENE 9 11 5 6 1020.4 1020.2 0.0
28/07:30pm 20.3 21.9 18.2 88 1.3 NE 7 11 4 6 1020.1 1019.9 0.0
28/07:00pm 20.4 21.7 18.5 89 1.2 NE 9 13 5 7 1020.0 1019.8 0.0
28/06:30pm 20.5 21.6 18.1 86 1.5 NE 9 17 5 9 1019.5 1019.3 0.0
28/06:00pm 20.8 21.1 17.8 83 1.9 NE 13 20 7 11 1019.4 1019.2 0.0
28/05:30pm 21.1 21.3 17.7 81 2.1 NE 13 20 7 11 1018.9 1018.8 0.0
28/05:00pm 21.5 21.6 17.5 78 2.5 NE 13 22 7 12 1018.4 1018.3 0.0

Other Formats:

Comma delimited format used in spreadsheet applications
http://www.bom.gov.au/fwo/IDQ60801/IDQ60801.94380.axf

JavaScript Object Notation format (JSON) in row-major order
http://www.bom.gov.au/fwo/IDQ60801/IDQ60801.94380.json